createdAt,value
2019-05-25T00:01:52.878Z,6.47
2019-05-25T00:04:22.031Z,4.90
2019-05-25T00:06:51.184Z,3.97
2019-05-25T00:09:20.241Z,6.77
2019-05-25T00:11:49.414Z,4.00
2019-05-25T00:14:18.532Z,4.90
2019-05-25T00:16:47.642Z,4.47
2019-05-25T00:19:16.802Z,3.90
2019-05-25T00:21:45.908Z,4.83
2019-05-25T00:24:14.991Z,5.00
2019-05-25T00:26:43.936Z,6.13
2019-05-25T00:29:13.009Z,5.60
2019-05-25T00:31:42.151Z,5.33
2019-05-25T00:34:11.537Z,4.87
2019-05-25T00:36:40.835Z,5.87
2019-05-25T00:39:09.926Z,4.30
2019-05-25T00:41:39.107Z,5.10
2019-05-25T00:44:08.278Z,5.00
2019-05-25T00:46:37.374Z,5.93
2019-05-25T00:49:06.499Z,4.00
2019-05-25T00:51:35.603Z,6.43
2019-05-25T00:54:04.749Z,5.17
2019-05-25T00:56:33.846Z,5.90
2019-05-25T00:59:02.940Z,5.10
2019-05-25T01:01:32.141Z,4.73
2019-05-25T01:04:01.254Z,5.60
2019-05-25T01:06:30.354Z,5.77
2019-05-25T01:08:59.483Z,4.90
2019-05-25T01:11:28.798Z,5.53
2019-05-25T01:13:57.980Z,5.30
2019-05-25T01:16:27.131Z,5.13
2019-05-25T01:18:56.234Z,4.53
2019-05-25T01:21:25.396Z,4.73
2019-05-25T01:23:54.497Z,4.87
2019-05-25T01:26:24.008Z,6.10
2019-05-25T01:28:53.218Z,4.83
2019-05-25T01:31:22.369Z,6.37
2019-05-25T01:33:51.602Z,5.17
2019-05-25T01:36:20.727Z,4.47
2019-05-25T01:38:49.838Z,5.10
2019-05-25T01:41:19.041Z,4.50
2019-05-25T01:43:48.138Z,6.67
2019-05-25T01:46:17.171Z,4.93
2019-05-25T01:48:46.179Z,4.60
2019-05-25T01:51:15.291Z,6.63
2019-05-25T01:53:44.371Z,5.57
2019-05-25T01:56:13.540Z,5.83
2019-05-25T01:58:42.630Z,6.13
2019-05-25T02:01:11.757Z,5.60
2019-05-25T02:03:40.882Z,5.33
2019-05-25T02:06:10.082Z,5.70
2019-05-25T02:08:39.173Z,6.27
2019-05-25T02:11:08.389Z,5.30
2019-05-25T02:13:37.551Z,6.53
2019-05-25T02:16:06.671Z,6.50
2019-05-25T02:18:35.783Z,4.53
2019-05-25T02:21:04.961Z,5.33
2019-05-25T02:23:33.991Z,4.57
2019-05-25T02:26:03.087Z,5.20
2019-05-25T02:28:32.199Z,4.33
2019-05-25T02:31:01.323Z,4.60
2019-05-25T02:33:30.454Z,4.93
2019-05-25T02:35:59.690Z,7.33
2019-05-25T02:38:28.798Z,5.60
2019-05-25T02:40:58.084Z,4.77
2019-05-25T02:43:27.180Z,5.07
2019-05-25T02:45:56.307Z,5.80
2019-05-25T02:48:25.418Z,5.13
2019-05-25T02:50:54.533Z,4.43
2019-05-25T02:53:23.707Z,4.60
2019-05-25T02:55:52.818Z,6.83
2019-05-25T02:58:21.941Z,7.07
2019-05-25T03:00:51.810Z,4.53
2019-05-25T03:03:20.930Z,6.50
2019-05-25T03:05:50.554Z,5.93
2019-05-25T03:08:19.737Z,4.93
2019-05-25T03:10:49.858Z,5.03
2019-05-25T03:13:19.794Z,7.00
2019-05-25T03:15:48.909Z,4.63
2019-05-25T03:18:18.023Z,6.53
2019-05-25T03:20:47.038Z,7.00
2019-05-25T03:23:16.152Z,5.13
2019-05-25T03:25:49.677Z,5.23
2019-05-25T03:28:16.067Z,6.37
2019-05-25T03:30:45.175Z,5.30
2019-05-25T03:33:14.332Z,6.87
2019-05-25T03:35:43.516Z,5.63
2019-05-25T03:38:12.684Z,4.83
2019-05-25T03:40:41.850Z,7.13
2019-05-25T03:43:11.054Z,6.47
2019-05-25T03:45:40.151Z,5.10
2019-05-25T03:48:09.290Z,7.17
2019-05-25T03:50:38.382Z,4.90
2019-05-25T03:53:12.705Z,5.30
2019-05-25T03:55:41.872Z,8.03
2019-05-25T03:58:10.958Z,6.03
2019-05-25T04:00:40.490Z,6.27
2019-05-25T04:03:09.595Z,5.00
2019-05-25T04:05:38.772Z,4.63
2019-05-25T04:08:07.938Z,5.60
2019-05-25T04:10:38.961Z,5.10
2019-05-25T04:13:07.973Z,9.10
2019-05-25T04:15:37.063Z,7.10
2019-05-25T04:18:06.226Z,4.80
2019-05-25T04:20:35.643Z,5.60
2019-05-25T04:23:04.832Z,4.97
2019-05-25T04:25:34.010Z,6.23
2019-05-25T04:28:03.133Z,4.80
2019-05-25T04:30:32.221Z,5.10
2019-05-25T04:33:01.234Z,5.37
2019-05-25T04:35:30.420Z,5.97
2019-05-25T04:37:59.515Z,6.73
2019-05-25T04:40:28.678Z,8.30
2019-05-25T04:42:57.805Z,6.50
2019-05-25T04:45:26.927Z,5.43
2019-05-25T04:47:56.283Z,5.50
2019-05-25T04:50:25.434Z,4.83
2019-05-25T04:52:54.519Z,6.00
2019-05-25T04:55:23.614Z,4.53
2019-05-25T04:57:53.020Z,5.83
2019-05-25T05:00:22.215Z,4.70
2019-05-25T05:02:51.456Z,6.30
2019-05-25T05:05:20.663Z,5.50
2019-05-25T05:07:50.341Z,8.93
2019-05-25T05:10:19.448Z,4.37
2019-05-25T05:12:48.585Z,5.83
2019-05-25T05:15:17.684Z,4.90
2019-05-25T05:17:46.767Z,3.93
2019-05-25T05:20:15.963Z,5.73
2019-05-25T05:22:45.066Z,4.77
2019-05-25T05:25:14.240Z,3.97
2019-05-25T05:27:43.351Z,4.63
2019-05-25T05:30:12.567Z,4.20
2019-05-25T05:32:41.678Z,4.73
2019-05-25T05:35:11.235Z,5.00
2019-05-25T05:37:41.585Z,3.97
2019-05-25T05:40:12.242Z,3.97
2019-05-25T05:42:42.971Z,3.73
2019-05-25T05:45:12.286Z,4.60
2019-05-25T05:47:43.819Z,4.13
2019-05-25T05:50:12.942Z,4.50
2019-05-25T05:52:42.163Z,5.30
2019-05-25T05:55:12.198Z,5.30
2019-05-25T05:57:41.626Z,4.87
2019-05-25T06:00:11.921Z,4.93
2019-05-25T06:02:41.412Z,4.03
2019-05-25T06:05:11.863Z,4.93
2019-05-25T06:07:40.961Z,6.43
2019-05-25T06:10:10.653Z,7.87
2019-05-25T06:12:39.754Z,4.27
2019-05-25T06:15:08.932Z,6.50
2019-05-25T06:17:38.018Z,5.20
2019-05-25T06:20:08.430Z,7.57
2019-05-25T06:22:37.597Z,6.27
2019-05-25T06:25:07.663Z,4.87
2019-05-25T06:27:36.923Z,7.03
2019-05-25T06:30:06.905Z,5.53
2019-05-25T06:32:36.318Z,6.80
2019-05-25T06:35:06.424Z,4.80
2019-05-25T06:37:35.538Z,6.33
2019-05-25T06:40:05.222Z,7.20
2019-05-25T06:42:34.508Z,5.17
2019-05-25T06:45:03.858Z,5.90
2019-05-25T06:47:32.994Z,5.27
2019-05-25T06:50:02.103Z,6.80
2019-05-25T06:52:31.119Z,6.43
2019-05-25T06:55:00.350Z,8.07
2019-05-25T06:57:42.186Z,6.87
2019-05-25T07:00:00.615Z,7.63
2019-05-25T07:02:29.758Z,6.13
2019-05-25T07:04:59.119Z,7.07
2019-05-25T07:07:28.243Z,11.37
2019-05-25T07:09:58.792Z,7.00
2019-05-25T07:12:31.001Z,6.37
2019-05-25T07:15:00.194Z,6.43
2019-05-25T07:17:30.367Z,7.03
2019-05-25T07:19:59.943Z,6.33
2019-05-25T07:22:29.118Z,5.10
2019-05-25T07:24:58.686Z,6.67
2019-05-25T07:27:27.543Z,6.43
2019-05-25T07:29:56.726Z,4.63
2019-05-25T07:32:26.158Z,5.80
2019-05-25T07:34:55.378Z,5.53
2019-05-25T07:37:24.514Z,9.70
2019-05-25T07:39:53.696Z,7.70
2019-05-25T07:42:22.837Z,6.43
2019-05-25T07:44:51.961Z,7.30
2019-05-25T07:47:21.227Z,6.20
2019-05-25T07:49:52.390Z,5.13
2019-05-25T07:52:21.496Z,5.23
2019-05-25T07:54:50.665Z,13.77
2019-05-25T07:57:19.842Z,11.63
2019-05-25T07:59:49.078Z,5.60
2019-05-25T08:02:18.348Z,5.57
2019-05-25T08:04:47.540Z,9.63
2019-05-25T08:07:16.735Z,7.10
2019-05-25T08:09:46.046Z,6.63
2019-05-25T08:12:15.122Z,8.77
2019-05-25T08:14:45.118Z,10.20
2019-05-25T08:17:14.479Z,5.33
2019-05-25T08:19:43.697Z,5.63
2019-05-25T08:22:12.866Z,6.60
2019-05-25T08:24:41.991Z,7.50
2019-05-25T08:27:11.087Z,6.83
2019-05-25T08:29:40.090Z,5.53
2019-05-25T08:32:09.327Z,6.97
2019-05-25T08:34:38.425Z,7.63
2019-05-25T08:37:07.574Z,6.53
2019-05-25T08:39:36.694Z,7.47
2019-05-25T08:42:05.824Z,7.27
2019-05-25T08:44:34.968Z,5.13
2019-05-25T08:47:04.218Z,5.00
2019-05-25T08:49:33.394Z,7.33
2019-05-25T08:52:04.242Z,6.50
2019-05-25T08:54:33.213Z,5.37
2019-05-25T08:57:02.361Z,6.97
2019-05-25T08:59:31.601Z,5.00
2019-05-25T09:02:00.702Z,5.23
2019-05-25T09:04:29.994Z,5.23
2019-05-25T09:06:59.098Z,6.47
2019-05-25T09:09:28.198Z,7.37
2019-05-25T09:11:57.310Z,10.57
2019-05-25T09:14:26.430Z,4.40
2019-05-25T09:16:55.536Z,8.83
2019-05-25T09:19:24.665Z,5.30
2019-05-25T09:22:02.410Z,5.87
2019-05-25T09:24:24.572Z,5.07
2019-05-25T09:26:53.695Z,7.27
2019-05-25T09:29:22.778Z,6.93
2019-05-25T09:31:51.929Z,6.17
2019-05-25T09:34:21.111Z,7.57
2019-05-25T09:36:50.226Z,7.23
2019-05-25T09:39:19.318Z,7.10
2019-05-25T09:41:48.437Z,5.43
2019-05-25T09:44:17.529Z,7.00
2019-05-25T09:46:46.634Z,7.47
2019-05-25T09:49:15.738Z,5.63
2019-05-25T09:51:44.832Z,5.33
2019-05-25T09:54:14.018Z,5.73
2019-05-25T09:56:43.116Z,5.43
2019-05-25T09:59:20.188Z,6.40
2019-05-25T10:01:43.072Z,7.53
2019-05-25T10:04:12.252Z,7.17
2019-05-25T10:06:41.430Z,6.57
2019-05-25T10:09:10.629Z,7.23
2019-05-25T10:11:39.843Z,5.90
2019-05-25T10:14:08.971Z,5.93
2019-05-25T10:16:38.085Z,7.77
2019-05-25T10:19:07.188Z,5.57
2019-05-25T10:21:36.339Z,6.67
2019-05-25T10:24:05.754Z,11.03
2019-05-25T10:26:34.847Z,6.83
2019-05-25T10:29:04.469Z,9.00
2019-05-25T10:31:33.591Z,6.03
2019-05-25T10:34:02.746Z,9.43
2019-05-25T10:36:31.879Z,6.73
2019-05-25T10:39:01.003Z,7.77
2019-05-25T10:41:30.122Z,6.23
2019-05-25T10:43:59.286Z,7.93
2019-05-25T10:46:28.723Z,7.33
2019-05-25T10:48:57.966Z,7.30
2019-05-25T10:51:27.068Z,6.10
2019-05-25T10:53:56.346Z,6.33
2019-05-25T10:56:25.435Z,9.10
2019-05-25T10:58:54.513Z,7.20
2019-05-25T11:01:23.616Z,6.80
2019-05-25T11:03:52.738Z,6.90
2019-05-25T11:06:21.919Z,4.90
2019-05-25T11:08:51.638Z,9.20
2019-05-25T11:11:20.842Z,6.80
2019-05-25T11:13:49.946Z,7.37
2019-05-25T11:16:19.069Z,6.70
2019-05-25T11:18:48.263Z,6.47
2019-05-25T11:21:17.369Z,7.40
2019-05-25T11:23:46.465Z,7.93
2019-05-25T11:26:16.299Z,5.67
2019-05-25T11:28:45.386Z,4.80
2019-05-25T11:31:14.502Z,6.77
2019-05-25T11:33:43.656Z,5.60
2019-05-25T11:36:12.806Z,5.80
2019-05-25T11:38:41.927Z,5.80
2019-05-25T11:41:11.087Z,5.90
2019-05-25T11:43:40.222Z,5.47
2019-05-25T11:46:09.323Z,7.77
2019-05-25T11:48:38.527Z,5.63
2019-05-25T11:51:07.625Z,5.00
2019-05-25T11:53:36.729Z,6.37
2019-05-25T11:56:05.864Z,5.37
2019-05-25T11:58:47.055Z,4.87
2019-05-25T12:01:06.074Z,7.13
2019-05-25T12:03:35.170Z,7.63
2019-05-25T12:06:04.224Z,6.50
2019-05-25T12:08:33.323Z,5.70
2019-05-25T12:11:02.490Z,9.57
2019-05-25T12:13:32.292Z,6.33
2019-05-25T12:16:01.533Z,7.07
2019-05-25T12:18:30.653Z,5.70
2019-05-25T12:20:59.802Z,6.13
2019-05-25T12:23:28.938Z,8.33
2019-05-25T12:25:58.043Z,6.73
2019-05-25T12:28:27.206Z,6.20
2019-05-25T12:30:56.395Z,7.20
2019-05-25T12:33:25.889Z,5.87
2019-05-25T12:35:55.037Z,5.50
2019-05-25T12:38:24.151Z,8.07
2019-05-25T12:40:54.225Z,5.90
2019-05-25T12:43:23.530Z,6.47
2019-05-25T12:45:52.547Z,5.93
2019-05-25T12:48:21.659Z,6.00
2019-05-25T12:50:50.742Z,6.80
2019-05-25T12:53:19.795Z,6.93
2019-05-25T12:55:49.107Z,6.77
2019-05-25T12:58:18.208Z,6.97
2019-05-25T13:00:55.680Z,9.50
2019-05-25T13:03:18.120Z,6.53
2019-05-25T13:05:47.223Z,5.70
2019-05-25T13:08:16.348Z,7.23
2019-05-25T13:10:45.546Z,9.60
2019-05-25T13:13:14.665Z,5.73
2019-05-25T13:15:43.761Z,6.03
2019-05-25T13:18:12.867Z,5.80
2019-05-25T13:20:42.657Z,6.27
2019-05-25T13:23:11.755Z,5.87
2019-05-25T13:25:40.830Z,7.07
2019-05-25T13:28:09.959Z,6.10
2019-05-25T13:30:39.062Z,5.33
2019-05-25T13:33:08.270Z,5.57
2019-05-25T13:35:37.447Z,5.63
2019-05-25T13:38:06.549Z,4.80
2019-05-25T13:40:35.641Z,7.50
2019-05-25T13:43:04.747Z,6.87
2019-05-25T13:45:33.888Z,5.73
2019-05-25T13:48:03.066Z,7.17
2019-05-25T13:50:32.154Z,6.30
2019-05-25T13:53:01.330Z,9.87
2019-05-25T13:55:30.415Z,8.40
2019-05-25T13:57:59.540Z,6.33
2019-05-25T14:00:28.619Z,6.47
2019-05-25T14:03:00.067Z,7.37
2019-05-25T14:05:29.234Z,8.17
2019-05-25T14:07:58.367Z,8.20
2019-05-25T14:10:27.476Z,6.67
2019-05-25T14:12:56.573Z,8.13
2019-05-25T14:15:25.779Z,7.17
2019-05-25T14:17:54.925Z,8.40
2019-05-25T14:20:24.146Z,8.77
2019-05-25T14:22:53.257Z,4.80
2019-05-25T14:25:22.470Z,6.93
2019-05-25T14:27:51.561Z,11.73
2019-05-25T14:30:21.350Z,8.40
2019-05-25T14:32:50.461Z,5.50
2019-05-25T14:35:19.931Z,7.03
2019-05-25T14:37:49.038Z,7.80
2019-05-25T14:40:18.242Z,8.20
2019-05-25T14:42:47.394Z,8.13
2019-05-25T14:45:16.515Z,11.40
2019-05-25T14:47:45.626Z,11.43
2019-05-25T14:50:15.130Z,9.90
2019-05-25T14:52:44.255Z,11.67
2019-05-25T14:55:13.376Z,6.47
2019-05-25T14:57:42.491Z,6.27
2019-05-25T15:00:13.206Z,5.60
2019-05-25T15:02:42.426Z,4.37
2019-05-25T15:05:11.603Z,6.07
2019-05-25T15:07:40.698Z,5.73
2019-05-25T15:10:11.817Z,5.80
2019-05-25T15:12:40.833Z,5.83
2019-05-25T15:15:10.660Z,4.50
2019-05-25T15:17:42.346Z,4.27
2019-05-25T15:20:11.377Z,3.90
2019-05-25T15:22:40.499Z,4.80
2019-05-25T15:25:10.890Z,7.00
2019-05-25T15:27:40.583Z,7.37
2019-05-25T15:30:09.722Z,4.13
2019-05-25T15:32:38.805Z,4.63
2019-05-25T15:35:08.207Z,3.83
2019-05-25T15:37:37.402Z,3.93
2019-05-25T15:40:07.720Z,5.63
2019-05-25T15:42:36.991Z,3.60
2019-05-25T15:45:06.505Z,5.07
2019-05-25T15:47:35.699Z,5.47
2019-05-25T15:50:06.522Z,5.60
2019-05-25T15:52:35.642Z,5.20
2019-05-25T15:55:05.656Z,4.27
2019-05-25T15:57:34.767Z,4.83
2019-05-25T16:00:05.084Z,8.07
2019-05-25T16:02:37.040Z,6.13
2019-05-25T16:05:05.625Z,6.10
2019-05-25T16:07:37.690Z,5.77
2019-05-25T16:10:07.402Z,5.43
2019-05-25T16:12:36.574Z,5.20
2019-05-25T16:15:05.977Z,5.43
2019-05-25T16:17:35.149Z,6.33
2019-05-25T16:20:04.650Z,4.43
2019-05-25T16:22:33.747Z,5.40
2019-05-25T16:25:02.861Z,6.57
2019-05-25T16:27:31.965Z,7.87
2019-05-25T16:30:01.078Z,6.10
2019-05-25T16:32:30.189Z,7.77
2019-05-25T16:34:59.383Z,7.80
2019-05-25T16:37:28.612Z,7.70
2019-05-25T16:39:57.728Z,9.77
2019-05-25T16:42:26.870Z,6.50
2019-05-25T16:44:55.971Z,8.93
2019-05-25T16:47:25.059Z,8.13
2019-05-25T16:49:54.233Z,7.03
2019-05-25T16:52:23.355Z,6.93
2019-05-25T16:54:52.569Z,13.03
2019-05-25T16:57:21.680Z,6.77
2019-05-25T16:59:50.876Z,7.23
2019-05-25T17:02:20.083Z,7.17
2019-05-25T17:04:49.200Z,11.50
2019-05-25T17:07:18.327Z,6.60
2019-05-25T17:09:47.534Z,5.17
2019-05-25T17:12:16.693Z,5.83
2019-05-25T17:14:45.818Z,6.27
2019-05-25T17:17:15.023Z,6.83
2019-05-25T17:19:44.120Z,6.50
2019-05-25T17:22:13.309Z,7.50
2019-05-25T17:24:42.527Z,5.27
2019-05-25T17:27:11.635Z,9.03
2019-05-25T17:29:40.867Z,7.73
2019-05-25T17:32:10.065Z,10.83
2019-05-25T17:34:39.253Z,7.60
2019-05-25T17:37:08.384Z,6.87
2019-05-25T17:39:37.469Z,8.83
2019-05-25T17:42:06.648Z,8.73
2019-05-25T17:44:35.823Z,7.73
2019-05-25T17:47:04.937Z,9.93
2019-05-25T17:49:34.112Z,12.57
2019-05-25T17:52:03.325Z,9.40
2019-05-25T17:54:32.454Z,10.57
2019-05-25T17:57:01.526Z,10.50
2019-05-25T17:59:30.693Z,9.60
2019-05-25T18:01:59.841Z,6.70
2019-05-25T18:04:29.021Z,8.83
2019-05-25T18:06:58.140Z,8.70
2019-05-25T18:09:27.315Z,10.70
2019-05-25T18:11:56.451Z,6.60
2019-05-25T18:14:25.544Z,7.20
2019-05-25T18:16:54.656Z,11.00
2019-05-25T18:19:23.839Z,10.30
2019-05-25T18:21:53.009Z,7.03
2019-05-25T18:24:22.178Z,8.50
2019-05-25T18:26:51.269Z,7.23
2019-05-25T18:29:23.625Z,8.07
2019-05-25T18:31:51.177Z,8.67
2019-05-25T18:34:22.424Z,10.87
2019-05-25T18:36:51.137Z,7.87
2019-05-25T18:39:20.307Z,12.90
2019-05-25T18:41:49.503Z,8.53
2019-05-25T18:44:18.718Z,7.63
2019-05-25T18:46:47.802Z,9.90
2019-05-25T18:49:17.000Z,10.70
2019-05-25T18:51:46.100Z,9.60
2019-05-25T18:54:15.226Z,9.10
2019-05-25T18:56:44.403Z,11.13
2019-05-25T18:59:13.534Z,8.30
2019-05-25T19:01:42.645Z,9.63
2019-05-25T19:04:11.814Z,11.80
2019-05-25T19:06:40.993Z,8.07
2019-05-25T19:09:11.410Z,11.40
2019-05-25T19:11:40.546Z,10.93
2019-05-25T19:14:09.712Z,13.80
2019-05-25T19:16:38.838Z,9.20
2019-05-25T19:19:07.945Z,8.80
2019-05-25T19:21:37.035Z,8.77
2019-05-25T19:24:06.161Z,8.17
2019-05-25T19:26:35.334Z,10.60
2019-05-25T19:29:05.763Z,9.43
2019-05-25T19:31:35.184Z,9.43
2019-05-25T19:34:04.296Z,9.83
2019-05-25T19:36:33.952Z,9.67
2019-05-25T19:39:04.355Z,12.23
2019-05-25T19:41:33.543Z,11.67
2019-05-25T19:44:02.650Z,8.13
2019-05-25T19:46:31.846Z,10.30
2019-05-25T19:49:01.268Z,9.53
2019-05-25T19:51:30.410Z,9.57
2019-05-25T19:53:59.517Z,11.90
2019-05-25T19:56:28.625Z,15.60
2019-05-25T19:58:57.798Z,13.47
2019-05-25T20:01:26.890Z,9.23
2019-05-25T20:03:57.504Z,11.60
2019-05-25T20:06:26.867Z,11.73
2019-05-25T20:08:55.979Z,13.07
2019-05-25T20:11:25.079Z,11.30
2019-05-25T20:13:54.174Z,13.60
2019-05-25T20:16:25.122Z,10.10
2019-05-25T20:18:54.155Z,16.13
2019-05-25T20:21:23.258Z,13.23
2019-05-25T20:23:52.376Z,10.80
2019-05-25T20:26:21.551Z,11.73
2019-05-25T20:28:51.046Z,10.03
2019-05-25T20:31:20.300Z,10.33
2019-05-25T20:33:50.385Z,11.23
2019-05-25T20:36:19.572Z,10.57
2019-05-25T20:38:48.746Z,9.77
2019-05-25T20:41:17.844Z,11.43
2019-05-25T20:43:46.959Z,9.90
2019-05-25T20:46:16.075Z,12.03
2019-05-25T20:48:45.177Z,12.87
2019-05-25T20:51:14.283Z,11.63
2019-05-25T20:53:43.491Z,12.07
2019-05-25T20:56:12.598Z,13.70
2019-05-25T20:58:41.925Z,13.33
2019-05-25T21:01:11.180Z,11.33
2019-05-25T21:03:40.347Z,12.00
2019-05-25T21:06:09.510Z,13.30
2019-05-25T21:08:39.037Z,9.27
2019-05-25T21:11:08.254Z,11.60
2019-05-25T21:13:37.390Z,10.33
2019-05-25T21:16:06.942Z,11.93
2019-05-25T21:18:36.054Z,11.70
2019-05-25T21:21:05.250Z,11.77
2019-05-25T21:23:34.375Z,11.97
2019-05-25T21:26:03.510Z,10.63
2019-05-25T21:28:32.655Z,11.27
2019-05-25T21:31:01.856Z,14.27
2019-05-25T21:33:30.900Z,17.53
2019-05-25T21:36:08.394Z,14.07
2019-05-25T21:38:30.832Z,15.03
2019-05-25T21:40:59.955Z,16.93
2019-05-25T21:43:29.066Z,13.83
2019-05-25T21:45:58.169Z,12.90
2019-05-25T21:48:27.303Z,11.73
2019-05-25T21:50:56.454Z,11.83
2019-05-25T21:53:25.629Z,11.53
2019-05-25T21:55:54.735Z,12.03
2019-05-25T21:58:23.863Z,14.00
2019-05-25T22:00:53.919Z,10.97
2019-05-25T22:03:23.127Z,11.63
2019-05-25T22:05:57.711Z,11.37
2019-05-25T22:08:26.775Z,11.03
2019-05-25T22:10:55.920Z,10.27
2019-05-25T22:13:28.654Z,12.23
2019-05-25T22:15:55.867Z,10.87
2019-05-25T22:18:25.046Z,12.83
2019-05-25T22:20:54.194Z,11.17
2019-05-25T22:23:23.304Z,11.27
2019-05-25T22:25:52.395Z,15.03
2019-05-25T22:28:21.514Z,14.87
2019-05-25T22:30:50.623Z,11.47
2019-05-25T22:33:19.766Z,10.33
2019-05-25T22:35:48.889Z,14.70
2019-05-25T22:38:18.060Z,11.63
2019-05-25T22:40:47.166Z,10.93
2019-05-25T22:43:16.270Z,13.27
2019-05-25T22:45:45.414Z,9.63
2019-05-25T22:48:16.028Z,9.67
2019-05-25T22:50:45.126Z,10.60
2019-05-25T22:53:14.213Z,10.73
2019-05-25T22:55:43.362Z,12.20
2019-05-25T22:58:12.465Z,9.83
2019-05-25T23:00:41.914Z,11.33
2019-05-25T23:03:11.042Z,12.07
2019-05-25T23:05:40.197Z,10.23
2019-05-25T23:08:09.303Z,11.43
2019-05-25T23:10:38.423Z,11.83
2019-05-25T23:13:07.572Z,11.13
2019-05-25T23:15:36.667Z,11.23
2019-05-25T23:18:05.767Z,9.00
2019-05-25T23:20:36.757Z,11.57
2019-05-25T23:23:05.766Z,9.00
2019-05-25T23:25:34.882Z,8.80
2019-05-25T23:28:03.980Z,9.93
2019-05-25T23:30:33.102Z,8.97
2019-05-25T23:33:02.268Z,9.10
2019-05-25T23:35:31.359Z,8.37
2019-05-25T23:38:03.504Z,8.43
2019-05-25T23:40:31.261Z,8.83
2019-05-25T23:43:00.406Z,8.47
2019-05-25T23:45:29.429Z,9.17
2019-05-25T23:47:58.590Z,8.80
2019-05-25T23:50:27.714Z,9.03
2019-05-25T23:52:56.875Z,8.47
2019-05-25T23:55:26.043Z,8.67
2019-05-25T23:57:55.214Z,8.07
